createdAt,value
2023-01-17T00:00:21.822Z,6.45
2023-01-17T00:02:26.482Z,5.57
2023-01-17T00:04:47.111Z,7.68
2023-01-17T00:07:12.927Z,6.53
2023-01-17T00:09:33.729Z,4.85
2023-01-17T00:11:41.037Z,8.13
2023-01-17T00:13:42.666Z,4.20
2023-01-17T00:15:44.166Z,6.45
2023-01-17T00:17:46.180Z,6.28
2023-01-17T00:20:12.656Z,7.00
2023-01-17T00:22:42.869Z,8.70
2023-01-17T00:25:05.451Z,5.95
2023-01-17T00:27:12.912Z,8.80
2023-01-17T00:29:14.401Z,9.82
2023-01-17T00:31:16.588Z,8.10
2023-01-17T00:33:18.273Z,9.43
2023-01-17T00:35:20.750Z,7.50
2023-01-17T00:37:24.954Z,7.78
2023-01-17T00:39:26.339Z,9.50
2023-01-17T00:41:33.679Z,11.65
2023-01-17T00:43:53.604Z,11.70
2023-01-17T00:46:16.784Z,6.65
2023-01-17T00:48:37.138Z,8.70
2023-01-17T00:51:02.850Z,9.93
2023-01-17T00:53:28.535Z,8.88
2023-01-17T00:55:48.725Z,9.10
2023-01-17T00:58:14.574Z,10.10
2023-01-17T01:00:36.992Z,9.23
2023-01-17T01:02:57.436Z,9.73
2023-01-17T01:05:23.527Z,10.05
2023-01-17T01:07:47.098Z,10.52
2023-01-17T01:10:20.311Z,8.15
2023-01-17T01:12:50.931Z,11.35
2023-01-17T01:15:19.556Z,10.63
2023-01-17T01:17:45.837Z,11.48
2023-01-17T01:20:19.661Z,11.15
2023-01-17T01:22:51.930Z,10.70
2023-01-17T01:25:26.405Z,11.70
2023-01-17T01:28:01.670Z,13.73
2023-01-17T01:30:30.815Z,10.52
2023-01-17T01:33:04.350Z,10.18
2023-01-17T01:35:19.287Z,12.68
2023-01-17T01:37:37.429Z,9.40
2023-01-17T01:39:42.910Z,9.10
2023-01-17T01:41:44.592Z,9.52
2023-01-17T01:43:47.722Z,8.25
2023-01-17T01:45:52.702Z,11.65
2023-01-17T01:48:17.805Z,11.30
2023-01-17T01:50:20.103Z,11.85
2023-01-17T01:52:29.544Z,12.55
2023-01-17T01:54:33.989Z,11.10
2023-01-17T01:56:36.437Z,12.55
2023-01-17T01:58:43.834Z,8.27
2023-01-17T02:00:45.498Z,10.73
2023-01-17T02:02:50.008Z,7.85
2023-01-17T02:04:51.944Z,7.18
2023-01-17T02:07:00.364Z,11.80
2023-01-17T02:09:03.668Z,10.40
2023-01-17T02:11:05.440Z,12.30
2023-01-17T02:13:10.815Z,14.85
2023-01-17T02:15:18.477Z,8.95
2023-01-17T02:17:22.641Z,8.77
2023-01-17T02:19:56.352Z,10.40
2023-01-17T02:21:57.809Z,7.57
2023-01-17T02:23:59.254Z,11.73
2023-01-17T02:26:12.118Z,9.73
2023-01-17T02:28:13.608Z,9.60
2023-01-17T02:30:18.669Z,10.35
2023-01-17T02:32:46.584Z,9.07
2023-01-17T02:34:56.883Z,9.73
2023-01-17T02:37:25.328Z,8.18
2023-01-17T02:39:36.962Z,8.60
2023-01-17T02:41:42.971Z,7.03
2023-01-17T02:43:44.690Z,10.27
2023-01-17T02:45:49.060Z,11.68
2023-01-17T02:47:50.577Z,11.95
2023-01-17T02:50:01.470Z,12.60
2023-01-17T02:52:15.124Z,12.98
2023-01-17T02:54:35.591Z,11.70
2023-01-17T02:56:39.785Z,12.90
2023-01-17T03:00:53.511Z,10.60
2023-01-17T03:02:58.868Z,9.82
2023-01-17T03:05:09.428Z,7.63
2023-01-17T03:07:22.598Z,6.30
2023-01-17T03:09:25.604Z,12.23
2023-01-17T03:11:33.167Z,6.97
2023-01-17T03:13:34.713Z,10.55
2023-01-17T03:15:36.259Z,8.75
2023-01-17T03:17:39.015Z,11.77
2023-01-17T03:19:40.530Z,7.93
2023-01-17T03:21:42.316Z,7.90
2023-01-17T03:23:49.876Z,10.10
2023-01-17T03:25:51.306Z,12.05
2023-01-17T03:30:00.008Z,8.10
2023-01-17T03:32:07.639Z,7.03
2023-01-17T03:34:09.210Z,8.10
2023-01-17T03:36:12.083Z,10.13
2023-01-17T03:38:16.300Z,10.05
2023-01-17T03:40:17.812Z,9.40
2023-01-17T03:42:19.330Z,8.13
2023-01-17T03:44:20.989Z,12.57
2023-01-17T03:46:28.669Z,8.05
2023-01-17T03:48:30.400Z,9.57
2023-01-17T03:50:34.954Z,10.15
2023-01-17T03:52:39.588Z,11.82
2023-01-17T03:54:43.866Z,9.60
2023-01-17T03:56:48.297Z,9.73
2023-01-17T04:00:53.983Z,9.02
2023-01-17T04:02:55.547Z,10.70
2023-01-17T04:07:04.033Z,7.43
2023-01-17T04:09:05.603Z,10.63
2023-01-17T04:11:07.159Z,7.07
2023-01-17T04:13:14.825Z,10.55
2023-01-17T04:15:26.716Z,11.35
2023-01-17T04:17:43.874Z,7.80
2023-01-17T04:19:59.664Z,7.35
2023-01-17T04:22:11.746Z,10.27
2023-01-17T04:24:22.070Z,6.90
2023-01-17T04:26:34.441Z,8.48
2023-01-17T04:28:48.353Z,8.77
2023-01-17T04:30:58.784Z,8.30
2023-01-17T04:33:09.949Z,6.72
2023-01-17T04:35:23.067Z,9.93
2023-01-17T04:37:37.593Z,7.22
2023-01-17T04:39:47.825Z,7.63
2023-01-17T04:41:59.778Z,8.57
2023-01-17T04:44:05.459Z,11.60
2023-01-17T04:48:15.339Z,11.70
2023-01-17T04:50:17.044Z,12.80
2023-01-17T04:52:21.582Z,10.13
2023-01-17T04:54:28.969Z,13.98
2023-01-17T04:56:33.580Z,13.80
2023-01-17T05:00:38.974Z,10.60
2023-01-17T05:02:43.315Z,11.75
2023-01-17T05:04:44.799Z,11.20
2023-01-17T05:06:48.954Z,9.20
2023-01-17T05:08:50.617Z,12.00
2023-01-17T05:10:57.812Z,9.93
2023-01-17T05:12:59.707Z,13.00
2023-01-17T05:15:01.158Z,9.50
2023-01-17T05:17:05.324Z,7.47
2023-01-17T05:21:16.813Z,11.18
2023-01-17T05:23:18.323Z,10.07
2023-01-17T05:25:24.159Z,10.40
2023-01-17T05:27:29.605Z,8.50
2023-01-17T05:29:34.082Z,8.55
2023-01-17T05:31:35.593Z,7.28
2023-01-17T05:35:41.128Z,6.13
2023-01-17T05:37:49.040Z,7.32
2023-01-17T05:39:53.419Z,6.13
2023-01-17T05:41:57.714Z,5.45
2023-01-17T05:43:59.211Z,6.05
2023-01-17T05:48:08.005Z,4.25
2023-01-17T05:50:13.280Z,5.35
2023-01-17T05:52:17.404Z,6.20
2023-01-17T05:54:21.819Z,5.40
2023-01-17T05:56:23.382Z,6.70
2023-01-17T05:58:27.643Z,6.72
2023-01-17T06:00:29.500Z,6.88
2023-01-17T06:02:30.946Z,7.43
2023-01-17T06:04:38.566Z,7.10
2023-01-17T06:06:42.736Z,5.78
2023-01-17T06:08:47.312Z,6.78
2023-01-17T06:10:48.921Z,6.25
2023-01-17T06:12:50.935Z,8.02
2023-01-17T06:14:55.238Z,5.97
2023-01-17T06:16:59.528Z,5.32
2023-01-17T06:19:04.090Z,6.50
2023-01-17T06:21:11.591Z,7.40
2023-01-17T06:23:14.135Z,5.07
2023-01-17T06:25:15.730Z,4.78
2023-01-17T06:27:20.244Z,4.68
2023-01-17T06:29:21.748Z,4.75
2023-01-17T06:31:23.274Z,4.78
2023-01-17T06:33:24.803Z,7.55
2023-01-17T06:35:29.546Z,4.75
2023-01-17T06:37:31.035Z,4.78
2023-01-17T06:41:39.334Z,6.05
2023-01-17T06:43:40.757Z,4.57
2023-01-17T06:45:45.344Z,3.45
2023-01-17T06:47:46.907Z,4.05
2023-01-17T06:49:48.409Z,4.15
2023-01-17T06:51:49.982Z,5.00
2023-01-17T06:53:54.589Z,5.25
2023-01-17T06:55:57.678Z,5.93
2023-01-17T06:57:59.789Z,5.15
2023-01-17T07:00:04.542Z,4.00
2023-01-17T07:02:10.176Z,4.47
2023-01-17T07:04:11.672Z,6.00
2023-01-17T07:06:16.009Z,4.70
2023-01-17T07:08:18.107Z,4.45
2023-01-17T07:10:19.594Z,4.25
2023-01-17T07:12:24.062Z,4.97
2023-01-17T07:14:25.496Z,3.95
2023-01-17T07:16:30.346Z,4.57
2023-01-17T07:18:35.229Z,5.85
2023-01-17T07:20:47.306Z,5.32
2023-01-17T07:22:56.570Z,3.65
2023-01-17T07:25:06.636Z,3.20
2023-01-17T07:27:16.931Z,3.42
2023-01-17T07:29:27.456Z,4.72
2023-01-17T07:31:39.075Z,4.28
2023-01-17T07:33:49.786Z,5.43
2023-01-17T07:35:59.842Z,4.40
2023-01-17T07:38:15.046Z,3.85
2023-01-17T07:40:27.125Z,3.13
2023-01-17T07:42:39.279Z,3.85
2023-01-17T07:44:53.354Z,4.60
2023-01-17T07:47:03.795Z,3.97
2023-01-17T07:49:10.634Z,2.80
2023-01-17T07:51:18.329Z,4.40
2023-01-17T07:53:27.025Z,3.30
2023-01-17T07:55:31.562Z,4.78
2023-01-17T07:57:35.951Z,4.05
2023-01-17T07:59:37.425Z,6.25
2023-01-17T08:01:42.221Z,4.43
2023-01-17T08:03:46.553Z,2.95
2023-01-17T08:05:57.559Z,4.15
2023-01-17T08:07:59.073Z,3.53
2023-01-17T08:10:01.547Z,3.83
2023-01-17T08:12:03.100Z,5.55
2023-01-17T08:14:05.058Z,4.55
2023-01-17T08:16:06.945Z,4.28
2023-01-17T08:18:11.631Z,3.25
2023-01-17T08:20:19.651Z,4.13
2023-01-17T08:22:21.301Z,5.03
2023-01-17T08:24:22.870Z,3.55
2023-01-17T08:26:27.445Z,3.33
2023-01-17T08:30:33.366Z,5.63
2023-01-17T08:32:34.985Z,3.63
2023-01-17T08:34:36.615Z,2.72
2023-01-17T08:36:38.093Z,3.97
2023-01-17T08:38:42.589Z,2.25
2023-01-17T08:40:44.425Z,3.63
2023-01-17T08:42:53.878Z,4.18
2023-01-17T08:45:01.377Z,2.88
2023-01-17T08:47:02.963Z,3.30
2023-01-17T08:49:04.443Z,4.13
2023-01-17T08:51:07.337Z,3.90
2023-01-17T08:53:08.938Z,4.47
2023-01-17T08:55:11.664Z,3.85
2023-01-17T08:57:13.209Z,4.25
2023-01-17T08:59:14.811Z,5.22
2023-01-17T09:01:22.286Z,4.53
2023-01-17T09:05:34.069Z,7.00
2023-01-17T09:07:38.629Z,4.28
2023-01-17T09:09:43.186Z,3.78
2023-01-17T09:11:44.755Z,4.88
2023-01-17T09:13:51.918Z,7.18
2023-01-17T09:15:56.464Z,5.50
2023-01-17T09:18:01.617Z,5.28
2023-01-17T09:20:03.150Z,4.13
2023-01-17T09:22:05.459Z,3.72
2023-01-17T09:24:10.039Z,4.63
2023-01-17T09:28:15.733Z,5.90
2023-01-17T09:30:23.921Z,5.07
2023-01-17T09:32:28.084Z,5.88
2023-01-17T09:34:30.535Z,4.70
2023-01-17T09:36:34.050Z,4.45
2023-01-17T09:38:36.119Z,3.83
2023-01-17T09:40:41.957Z,5.50
2023-01-17T09:42:43.673Z,5.53
2023-01-17T09:44:51.935Z,5.47
2023-01-17T09:46:55.807Z,5.07
2023-01-17T09:49:03.359Z,4.35
2023-01-17T09:51:14.560Z,4.77
2023-01-17T09:53:22.551Z,6.78
2023-01-17T09:55:24.295Z,3.95
2023-01-17T09:57:34.992Z,3.15
2023-01-17T10:00:03.253Z,3.58
2023-01-17T10:02:11.045Z,2.30
2023-01-17T10:04:18.732Z,4.30
2023-01-17T10:06:40.499Z,7.28
2023-01-17T10:08:53.910Z,7.38
2023-01-17T10:11:20.603Z,6.85
2023-01-17T10:13:32.566Z,9.48
2023-01-17T10:15:55.272Z,8.60
2023-01-17T10:17:56.714Z,9.10
2023-01-17T10:20:19.341Z,10.00
2023-01-17T10:22:42.292Z,9.80
2023-01-17T10:24:46.150Z,12.25
2023-01-17T10:26:53.945Z,15.93
2023-01-17T10:29:01.149Z,13.55
2023-01-17T10:31:09.686Z,13.95
2023-01-17T10:33:16.545Z,12.45
2023-01-17T10:35:30.492Z,11.13
2023-01-17T10:37:42.082Z,7.93
2023-01-17T10:39:50.235Z,7.82
2023-01-17T10:42:01.990Z,7.65
2023-01-17T10:44:15.437Z,8.15
2023-01-17T10:46:21.270Z,10.32
2023-01-17T10:48:31.246Z,8.98
2023-01-17T10:50:37.507Z,8.73
2023-01-17T10:52:58.686Z,8.55
2023-01-17T10:55:13.255Z,5.70
2023-01-17T10:57:19.791Z,6.43
2023-01-17T10:59:33.546Z,5.25
2023-01-17T11:01:35.513Z,4.72
2023-01-17T11:03:37.296Z,5.68
2023-01-17T11:05:41.425Z,5.90
2023-01-17T11:07:56.544Z,5.03
2023-01-17T11:10:00.785Z,3.85
2023-01-17T11:12:05.331Z,3.25
2023-01-17T11:14:18.439Z,3.35
2023-01-17T11:16:26.695Z,3.85
2023-01-17T11:18:31.715Z,3.25
2023-01-17T11:20:37.180Z,3.92
2023-01-17T11:22:38.762Z,2.22
2023-01-17T11:24:49.140Z,2.67
2023-01-17T11:26:57.207Z,2.35
2023-01-17T11:29:20.038Z,2.40
2023-01-17T11:31:27.548Z,2.63
2023-01-17T11:33:49.185Z,3.55
2023-01-17T11:35:56.755Z,3.58
2023-01-17T11:38:05.910Z,2.13
2023-01-17T11:40:21.233Z,3.40
2023-01-17T11:42:38.271Z,2.10
2023-01-17T11:44:45.899Z,3.45
2023-01-17T11:47:09.521Z,2.00
2023-01-17T11:49:24.738Z,1.88
2023-01-17T11:51:30.900Z,2.97
2023-01-17T11:53:34.341Z,2.70
2023-01-17T11:55:36.350Z,2.58
2023-01-17T11:57:37.856Z,2.20
2023-01-17T11:59:47.930Z,3.50
2023-01-17T12:01:49.860Z,3.53
2023-01-17T12:03:57.247Z,4.20
2023-01-17T12:06:12.355Z,2.13
2023-01-17T12:08:13.789Z,3.08
2023-01-17T12:10:27.646Z,2.28
2023-01-17T12:13:25.760Z,2.72
2023-01-17T12:15:36.035Z,3.83
2023-01-17T12:17:43.155Z,2.03
2023-01-17T12:22:28.744Z,2.20
2023-01-17T12:24:41.043Z,3.05
2023-01-17T12:26:44.044Z,4.38
2023-01-17T12:28:48.232Z,2.17
2023-01-17T12:31:08.284Z,2.72
2023-01-17T12:33:12.940Z,2.42
2023-01-17T12:35:27.091Z,2.30
2023-01-17T12:37:38.583Z,4.00
2023-01-17T12:39:43.389Z,2.65
2023-01-17T12:41:44.809Z,1.92
2023-01-17T12:43:46.570Z,1.80
2023-01-17T12:45:49.486Z,2.30
2023-01-17T12:47:58.583Z,1.90
2023-01-17T12:50:15.640Z,1.77
2023-01-17T12:52:17.090Z,1.67
2023-01-17T12:54:25.460Z,1.95
2023-01-17T12:56:35.626Z,2.58
2023-01-17T12:58:42.624Z,1.83
2023-01-17T13:00:51.325Z,1.88
2023-01-17T13:03:34.237Z,2.50
2023-01-17T13:05:55.412Z,2.38
2023-01-17T13:08:33.041Z,1.67
2023-01-17T13:10:54.524Z,3.58
2023-01-17T13:13:20.217Z,1.30
2023-01-17T13:15:26.370Z,1.55
2023-01-17T13:17:34.998Z,1.33
2023-01-17T13:19:36.420Z,2.15
2023-01-17T13:21:38.269Z,1.75
2023-01-17T13:23:51.851Z,1.20
2023-01-17T13:25:54.863Z,1.33
2023-01-17T13:28:04.803Z,1.92
2023-01-17T13:30:25.989Z,1.67
2023-01-17T13:33:07.323Z,1.40
2023-01-17T13:35:14.869Z,1.33
2023-01-17T13:37:31.931Z,1.48
2023-01-17T13:39:33.696Z,1.30
2023-01-17T13:41:38.049Z,1.45
2023-01-17T13:43:41.821Z,1.42
2023-01-17T13:45:55.659Z,1.55
2023-01-17T13:48:12.137Z,1.75
2023-01-17T13:50:32.692Z,1.30
2023-01-17T13:52:38.253Z,1.30
2023-01-17T13:54:44.775Z,1.30
2023-01-17T13:56:46.353Z,1.20
2023-01-17T13:58:49.979Z,2.45
2023-01-17T14:00:54.955Z,2.85
2023-01-17T14:02:56.654Z,1.05
2023-01-17T14:05:07.281Z,1.50
2023-01-17T14:07:19.852Z,1.38
2023-01-17T14:09:37.779Z,1.65
2023-01-17T14:11:50.769Z,1.42
2023-01-17T14:13:52.671Z,1.92
2023-01-17T14:16:00.338Z,2.63
2023-01-17T14:18:07.067Z,1.42
2023-01-17T14:20:16.126Z,2.33
2023-01-17T14:22:20.830Z,1.48
2023-01-17T14:24:59.511Z,1.08
2023-01-17T14:27:24.071Z,1.30
2023-01-17T14:29:44.386Z,1.30
2023-01-17T14:31:59.424Z,2.75
2023-01-17T14:34:11.248Z,1.75
2023-01-17T14:38:24.717Z,1.35
2023-01-17T14:40:33.028Z,1.38
2023-01-17T14:42:34.468Z,1.33
2023-01-17T14:44:35.892Z,1.05
2023-01-17T14:46:37.327Z,1.33
2023-01-17T14:48:41.963Z,1.88
2023-01-17T14:53:08.198Z,1.30
2023-01-17T14:55:17.339Z,1.38
2023-01-17T14:57:24.891Z,1.20
2023-01-17T14:59:29.216Z,2.17
2023-01-17T15:01:35.636Z,1.80
2023-01-17T15:03:49.000Z,2.03
2023-01-17T15:06:16.511Z,4.03
2023-01-17T15:08:19.702Z,1.85
2023-01-17T15:10:46.900Z,1.25
2023-01-17T15:12:52.305Z,2.05
2023-01-17T15:14:58.594Z,1.67
2023-01-17T15:17:29.003Z,1.42
2023-01-17T15:19:40.438Z,2.15
2023-01-17T15:22:00.904Z,1.83
2023-01-17T15:24:08.817Z,1.73
2023-01-17T15:26:12.650Z,1.75
2023-01-17T15:28:33.690Z,1.83
2023-01-17T15:30:35.172Z,1.13
2023-01-17T15:32:55.363Z,1.10
2023-01-17T15:35:02.513Z,1.23
2023-01-17T15:37:08.430Z,0.90
2023-01-17T15:39:35.901Z,1.02
2023-01-17T15:41:40.642Z,1.20
2023-01-17T15:43:45.217Z,1.00
2023-01-17T15:45:57.084Z,1.33
2023-01-17T15:48:19.777Z,1.70
2023-01-17T15:50:30.245Z,1.85
2023-01-17T15:52:46.962Z,0.98
2023-01-17T15:54:55.666Z,1.33
2023-01-17T15:57:03.202Z,1.67
2023-01-17T15:59:23.551Z,1.40
2023-01-17T16:01:52.188Z,1.80
2023-01-17T16:03:56.638Z,1.90
2023-01-17T16:06:01.243Z,1.63
2023-01-17T16:08:02.793Z,1.75
2023-01-17T16:10:18.575Z,1.50
2023-01-17T16:12:20.043Z,2.35
2023-01-17T16:14:21.444Z,2.08
2023-01-17T16:16:24.017Z,2.20
2023-01-17T16:18:25.910Z,2.33
2023-01-17T16:20:59.691Z,1.73
2023-01-17T16:23:01.853Z,2.30
2023-01-17T16:25:06.013Z,2.10
2023-01-17T16:27:13.682Z,2.03
2023-01-17T16:29:21.534Z,2.80
2023-01-17T16:31:23.155Z,4.20
2023-01-17T16:33:46.519Z,4.60
2023-01-17T16:35:56.668Z,3.70
2023-01-17T16:37:59.831Z,4.40
2023-01-17T16:40:07.042Z,5.63
2023-01-17T16:42:29.268Z,6.78
2023-01-17T16:44:38.110Z,6.10
2023-01-17T16:46:43.139Z,7.22
2023-01-17T16:48:49.371Z,9.35
2023-01-17T16:50:53.136Z,7.35
2023-01-17T16:52:59.233Z,12.30
2023-01-17T16:55:06.746Z,7.07
2023-01-17T16:57:09.772Z,7.85
2023-01-17T16:59:15.213Z,9.40
2023-01-17T17:01:25.676Z,9.30
2023-01-17T17:03:29.340Z,9.20
2023-01-17T17:05:35.754Z,8.15
2023-01-17T17:07:43.060Z,8.65
2023-01-17T17:09:45.134Z,7.93
2023-01-17T17:11:49.636Z,9.10
2023-01-17T17:13:54.163Z,8.65
2023-01-17T17:15:56.046Z,8.48
2023-01-17T17:18:00.660Z,9.85
2023-01-17T17:20:20.668Z,11.95
2023-01-17T17:22:22.172Z,8.98
2023-01-17T17:24:42.087Z,8.27
2023-01-17T17:26:44.159Z,9.40
2023-01-17T17:29:05.022Z,7.80
2023-01-17T17:31:08.680Z,7.70
2023-01-17T17:33:12.991Z,9.55
2023-01-17T17:35:14.598Z,10.60
2023-01-17T17:37:18.977Z,7.70
2023-01-17T17:39:20.504Z,8.65
2023-01-17T17:41:28.724Z,9.77
2023-01-17T17:43:30.147Z,6.90
2023-01-17T17:45:31.536Z,8.00
2023-01-17T17:49:39.975Z,11.90
2023-01-17T17:53:52.954Z,10.60
2023-01-17T17:56:02.257Z,8.48
2023-01-17T17:58:03.832Z,12.73
2023-01-17T18:00:14.387Z,8.45
2023-01-17T18:02:16.445Z,9.93
2023-01-17T18:04:37.100Z,9.60
2023-01-17T18:06:44.571Z,11.40
2023-01-17T18:08:49.211Z,8.75
2023-01-17T18:10:57.395Z,8.65
2023-01-17T18:13:17.355Z,7.53
2023-01-17T18:15:20.761Z,5.38
2023-01-17T18:17:22.240Z,11.50
2023-01-17T18:19:24.792Z,6.22
2023-01-17T18:21:31.091Z,7.82
2023-01-17T18:23:32.566Z,6.53
2023-01-17T18:25:36.774Z,6.30
2023-01-17T18:30:02.659Z,7.82
2023-01-17T18:32:07.102Z,5.32
2023-01-17T18:34:10.133Z,7.57
2023-01-17T18:36:14.267Z,7.15
2023-01-17T18:40:19.952Z,6.45
2023-01-17T18:42:23.436Z,8.43
2023-01-17T18:44:27.958Z,5.85
2023-01-17T18:46:32.850Z,5.95
2023-01-17T18:48:55.263Z,7.00
2023-01-17T18:51:00.756Z,8.75
2023-01-17T18:53:04.891Z,8.93
2023-01-17T18:55:06.447Z,7.45
2023-01-17T18:57:07.925Z,9.18
2023-01-17T19:01:15.053Z,7.97
2023-01-17T19:03:20.872Z,8.00
2023-01-17T19:05:22.392Z,7.50
2023-01-17T19:07:29.099Z,7.63
2023-01-17T19:09:33.307Z,9.70
2023-01-17T19:11:38.070Z,8.93
2023-01-17T19:13:45.497Z,10.10
2023-01-17T19:15:49.771Z,7.85
2023-01-17T19:17:54.461Z,8.73
2023-01-17T19:19:57.178Z,7.25
2023-01-17T19:21:58.685Z,9.27
2023-01-17T19:24:03.507Z,11.52
2023-01-17T19:26:08.636Z,8.05
2023-01-17T19:28:13.185Z,9.32
2023-01-17T19:30:17.781Z,7.38
2023-01-17T19:32:22.114Z,8.50
2023-01-17T19:34:26.582Z,7.13
2023-01-17T19:36:33.723Z,8.52
2023-01-17T19:38:36.162Z,5.97
2023-01-17T19:40:39.915Z,7.43
2023-01-17T19:42:48.331Z,7.80
2023-01-17T19:45:00.705Z,6.53
2023-01-17T19:47:10.145Z,9.40
2023-01-17T19:49:21.380Z,6.15
2023-01-17T19:51:29.390Z,7.90
2023-01-17T19:53:39.697Z,7.72
2023-01-17T19:55:50.208Z,7.25
2023-01-17T19:58:00.034Z,9.18
2023-01-17T20:00:17.298Z,8.52
2023-01-17T20:02:34.215Z,7.18
2023-01-17T20:04:44.090Z,7.32
2023-01-17T20:06:52.287Z,9.07
2023-01-17T20:08:58.527Z,7.15
2023-01-17T20:11:12.041Z,8.63
2023-01-17T20:13:15.387Z,8.57
2023-01-17T20:15:17.019Z,12.82
2023-01-17T20:17:18.561Z,9.60
2023-01-17T20:19:25.663Z,10.02
2023-01-17T20:21:27.706Z,6.78
2023-01-17T20:23:35.816Z,9.10
2023-01-17T20:25:51.847Z,9.55
2023-01-17T20:27:53.343Z,5.95
2023-01-17T20:29:54.995Z,6.55
2023-01-17T20:31:59.443Z,8.00
2023-01-17T20:34:00.957Z,7.00
2023-01-17T20:36:10.645Z,8.48
2023-01-17T20:38:12.468Z,9.13
2023-01-17T20:40:17.536Z,8.90
2023-01-17T20:42:19.021Z,8.80
2023-01-17T20:46:29.233Z,8.13
2023-01-17T20:48:36.635Z,9.27
2023-01-17T20:50:38.113Z,8.55
2023-01-17T20:52:42.359Z,7.63
2023-01-17T20:54:43.819Z,7.22
2023-01-17T20:56:47.486Z,6.30
2023-01-17T20:58:51.656Z,6.55
2023-01-17T21:01:13.087Z,7.32
2023-01-17T21:03:17.774Z,7.88
2023-01-17T21:05:22.062Z,7.43
2023-01-17T21:09:27.691Z,5.47
2023-01-17T21:11:29.179Z,7.15
2023-01-17T21:13:31.788Z,9.75
2023-01-17T21:15:41.366Z,6.78
2023-01-17T21:17:44.467Z,7.30
2023-01-17T21:19:46.138Z,6.22
2023-01-17T21:21:51.189Z,6.22
2023-01-17T21:23:59.314Z,9.38
2023-01-17T21:26:20.271Z,9.60
2023-01-17T21:28:22.293Z,8.80
2023-01-17T21:30:23.885Z,12.07
2023-01-17T21:32:29.715Z,11.13
2023-01-17T21:34:32.698Z,12.07
2023-01-17T21:36:38.429Z,12.20
2023-01-17T21:38:43.043Z,12.20
2023-01-17T21:40:47.563Z,10.48
2023-01-17T21:42:52.776Z,11.57
2023-01-17T21:45:13.292Z,13.57
2023-01-17T21:47:18.008Z,12.95
2023-01-17T21:49:22.256Z,10.85
2023-01-17T21:51:24.450Z,13.88
2023-01-17T21:53:27.684Z,10.82
2023-01-17T21:55:50.318Z,13.23
2023-01-17T21:58:32.739Z,10.93
2023-01-17T22:00:37.029Z,12.25
2023-01-17T22:02:41.906Z,11.98
2023-01-17T22:04:49.402Z,11.13
2023-01-17T22:06:53.885Z,11.27
2023-01-17T22:08:56.142Z,12.05
2023-01-17T22:11:04.573Z,10.23
2023-01-17T22:13:06.015Z,10.63
2023-01-17T22:17:21.095Z,9.77
2023-01-17T22:19:22.600Z,10.88
2023-01-17T22:21:30.100Z,8.52
2023-01-17T22:23:31.561Z,10.70
2023-01-17T22:25:33.528Z,7.75
2023-01-17T22:27:35.240Z,11.25
2023-01-17T22:29:39.556Z,9.63
2023-01-17T22:31:41.080Z,7.68
2023-01-17T22:34:02.642Z,8.05
2023-01-17T22:36:04.752Z,8.45
2023-01-17T22:38:24.857Z,9.45
2023-01-17T22:40:27.876Z,9.00
2023-01-17T22:42:35.378Z,12.95
2023-01-17T22:44:36.864Z,8.30
2023-01-17T22:48:52.037Z,10.73
2023-01-17T22:51:18.133Z,10.85
2023-01-17T22:53:22.405Z,11.52
2023-01-17T22:55:50.191Z,10.95
2023-01-17T22:58:02.847Z,13.90
2023-01-17T23:00:18.624Z,14.48
2023-01-17T23:02:23.304Z,10.82
2023-01-17T23:04:45.912Z,11.07
2023-01-17T23:06:54.552Z,9.43
2023-01-17T23:09:05.885Z,10.35
2023-01-17T23:11:45.723Z,6.78
2023-01-17T23:14:02.654Z,4.95
2023-01-17T23:16:32.341Z,5.53
2023-01-17T23:18:53.481Z,4.72
2023-01-17T23:20:57.841Z,5.57
2023-01-17T23:23:17.747Z,5.85
2023-01-17T23:25:19.622Z,6.47
2023-01-17T23:27:55.003Z,7.85
2023-01-17T23:29:56.685Z,6.55
2023-01-17T23:32:01.032Z,4.05
2023-01-17T23:34:02.486Z,4.18
2023-01-17T23:36:04.174Z,4.40
2023-01-17T23:38:24.598Z,5.85
2023-01-17T23:40:26.237Z,9.07
2023-01-17T23:42:46.469Z,6.68
2023-01-17T23:44:53.944Z,7.18
2023-01-17T23:46:59.564Z,5.10
2023-01-17T23:49:01.218Z,9.98
2023-01-17T23:51:08.484Z,7.43
2023-01-17T23:53:22.271Z,12.90
2023-01-17T23:55:26.504Z,11.30
2023-01-17T23:57:27.962Z,11.05
2023-01-17T23:59:29.597Z,10.23
